createdAt,value
2023-03-26T00:01:34.093Z,22.33
2023-03-26T00:04:34.204Z,21.00
2023-03-26T00:07:32.145Z,22.75
2023-03-26T00:10:30.014Z,23.35
2023-03-26T00:13:28.184Z,20.38
2023-03-26T00:16:30.476Z,24.92
2023-03-26T00:19:28.607Z,25.83
2023-03-26T00:22:27.044Z,21.83
2023-03-26T00:25:25.017Z,23.30
2023-03-26T00:28:23.993Z,18.45
2023-03-26T00:31:22.778Z,21.20
2023-03-26T00:34:21.857Z,22.83
2023-03-26T00:37:21.642Z,22.08
2023-03-26T00:40:19.816Z,23.02
2023-03-26T00:43:20.328Z,19.90
2023-03-26T00:46:18.795Z,20.63
2023-03-26T00:49:16.733Z,24.40
2023-03-26T00:52:14.870Z,22.65
2023-03-26T00:55:13.362Z,24.92
2023-03-26T00:58:11.657Z,24.15
2023-03-26T01:01:14.695Z,22.95
2023-03-26T01:04:31.630Z,27.67
2023-03-26T01:07:30.204Z,23.48
2023-03-26T01:10:28.635Z,28.10
2023-03-26T01:13:27.285Z,26.70
2023-03-26T01:16:55.660Z,26.63
2023-03-26T01:20:16.193Z,22.05
2023-03-26T01:23:21.062Z,25.85
2023-03-26T01:26:38.416Z,24.45
2023-03-26T01:29:49.217Z,21.10
2023-03-26T01:33:08.319Z,22.60
2023-03-26T01:36:33.830Z,27.25
2023-03-26T01:39:41.686Z,21.85
2023-03-26T01:43:07.591Z,26.35
2023-03-26T01:46:08.802Z,25.23
2023-03-26T01:49:13.995Z,21.92
2023-03-26T01:52:20.171Z,24.92
2023-03-26T01:55:18.481Z,21.52
2023-03-26T01:58:28.695Z,26.17
2023-03-26T02:01:45.913Z,24.33
2023-03-26T02:05:00.607Z,25.60
2023-03-26T02:08:12.459Z,21.63
2023-03-26T02:11:13.569Z,21.67
2023-03-26T02:14:11.747Z,18.67
2023-03-26T02:17:11.538Z,24.73
2023-03-26T02:20:12.043Z,21.85
2023-03-26T02:23:10.533Z,18.75
2023-03-26T02:26:10.961Z,25.83
2023-03-26T02:29:09.370Z,19.17
2023-03-26T02:32:09.194Z,24.90
2023-03-26T02:35:07.654Z,25.77
2023-03-26T02:38:05.568Z,20.92
2023-03-26T02:41:04.543Z,23.30
2023-03-26T02:44:02.379Z,23.85
2023-03-26T02:47:00.982Z,34.25
2023-03-26T02:49:58.792Z,30.25
2023-03-26T02:52:56.783Z,25.42
2023-03-26T02:55:54.759Z,32.58
2023-03-26T02:58:52.851Z,37.22
2023-03-26T03:01:50.711Z,31.30
2023-03-26T03:04:48.701Z,31.92
2023-03-26T03:07:47.426Z,27.42
2023-03-26T03:10:45.492Z,31.42
2023-03-26T03:13:44.447Z,28.15
2023-03-26T03:16:42.403Z,32.55
2023-03-26T03:19:40.523Z,33.63
2023-03-26T03:22:39.183Z,35.80
2023-03-26T03:25:38.712Z,38.53
2023-03-26T03:28:36.683Z,39.15
2023-03-26T03:31:34.523Z,35.50
2023-03-26T03:34:32.447Z,50.92
2023-03-26T03:37:30.294Z,43.53
2023-03-26T03:40:28.381Z,50.70
2023-03-26T03:43:28.021Z,46.20
2023-03-26T03:46:26.128Z,52.42
2023-03-26T03:49:24.203Z,49.95
2023-03-26T03:52:22.160Z,52.70
2023-03-26T03:55:20.009Z,54.95
2023-03-26T03:58:22.443Z,56.05
2023-03-26T04:01:23.227Z,59.63
2023-03-26T04:04:25.184Z,62.92
2023-03-26T04:07:23.070Z,70.53
2023-03-26T04:10:21.058Z,65.72
2023-03-26T04:13:19.385Z,65.50
2023-03-26T04:16:18.107Z,73.30
2023-03-26T04:19:16.847Z,62.45
2023-03-26T04:22:15.200Z,64.60
2023-03-26T04:25:16.043Z,62.90
2023-03-26T04:28:23.146Z,69.15
2023-03-26T04:31:24.997Z,58.28
2023-03-26T04:34:25.754Z,56.00
2023-03-26T04:37:34.910Z,75.22
2023-03-26T04:40:35.388Z,68.50
2023-03-26T04:43:36.018Z,53.97
2023-03-26T04:46:34.119Z,63.38
2023-03-26T04:49:31.949Z,64.75
2023-03-26T04:52:29.926Z,56.22
2023-03-26T04:55:37.587Z,60.88
2023-03-26T04:58:35.973Z,65.95
2023-03-26T05:01:33.824Z,70.40
2023-03-26T05:04:34.680Z,63.97
2023-03-26T05:07:33.737Z,55.63
2023-03-26T05:10:31.994Z,59.08
2023-03-26T05:13:29.805Z,62.08
2023-03-26T05:16:28.923Z,56.42
2023-03-26T05:19:27.436Z,58.03
2023-03-26T05:22:25.426Z,61.97
2023-03-26T05:25:23.540Z,53.60
2023-03-26T05:28:24.982Z,58.83
2023-03-26T05:31:23.142Z,46.97
2023-03-26T05:34:24.823Z,52.40
2023-03-26T05:37:25.126Z,53.38
2023-03-26T05:40:23.060Z,57.85
2023-03-26T05:43:20.848Z,59.50
2023-03-26T05:46:20.911Z,70.75
2023-03-26T05:49:18.730Z,68.85
2023-03-26T05:52:19.557Z,82.82
2023-03-26T05:55:18.938Z,67.40
2023-03-26T05:58:17.326Z,62.45
2023-03-26T06:01:19.103Z,75.75
2023-03-26T06:04:17.737Z,66.90
2023-03-26T06:07:17.311Z,73.03
2023-03-26T06:10:18.420Z,78.78
2023-03-26T06:13:17.856Z,99.13
2023-03-26T06:16:27.575Z,83.15
2023-03-26T06:19:26.284Z,79.85
2023-03-26T06:22:24.249Z,68.72
2023-03-26T06:25:22.245Z,73.90
2023-03-26T06:28:20.221Z,75.60
2023-03-26T06:31:19.678Z,79.15
2023-03-26T06:34:17.628Z,72.80
2023-03-26T06:37:16.905Z,69.32
2023-03-26T06:40:15.953Z,80.38
2023-03-26T06:43:13.821Z,89.53
2023-03-26T06:46:12.551Z,74.18
2023-03-26T06:49:10.382Z,95.10
2023-03-26T06:52:08.495Z,90.72
2023-03-26T06:55:09.220Z,80.40
2023-03-26T06:58:07.175Z,80.95
2023-03-26T07:01:05.252Z,76.78
2023-03-26T07:04:03.414Z,77.93
2023-03-26T07:07:01.509Z,78.70
2023-03-26T07:09:59.457Z,76.70
2023-03-26T07:12:57.287Z,71.53
2023-03-26T07:15:55.957Z,79.75
2023-03-26T07:18:55.803Z,78.13
2023-03-26T07:21:54.193Z,88.03
2023-03-26T07:24:52.399Z,80.63
2023-03-26T07:28:06.817Z,76.45
2023-03-26T07:31:21.471Z,83.53
2023-03-26T07:34:50.217Z,95.85
2023-03-26T07:37:58.390Z,87.88
2023-03-26T07:41:25.253Z,94.07
2023-03-26T07:44:44.263Z,90.60
2023-03-26T07:47:43.751Z,81.07
2023-03-26T07:50:41.903Z,76.90
2023-03-26T07:53:40.224Z,84.15
2023-03-26T07:56:53.550Z,88.75
2023-03-26T08:00:02.040Z,70.85
2023-03-26T08:03:30.500Z,89.50
2023-03-26T08:06:35.862Z,85.60
2023-03-26T08:09:42.533Z,79.30
2023-03-26T08:12:56.103Z,75.10
2023-03-26T08:16:12.169Z,66.70
2023-03-26T08:19:27.717Z,73.65
2023-03-26T08:22:35.051Z,80.80
2023-03-26T08:25:57.200Z,67.65
2023-03-26T08:32:00.840Z,68.97
2023-03-26T08:35:00.607Z,66.25
2023-03-26T08:37:58.697Z,65.40
2023-03-26T08:41:30.675Z,70.60
2023-03-26T08:44:55.416Z,61.53
2023-03-26T08:48:23.880Z,61.00
2023-03-26T08:51:45.478Z,63.13
2023-03-26T08:55:05.365Z,65.80
2023-03-26T08:58:27.058Z,51.50
2023-03-26T09:01:56.643Z,57.88
2023-03-26T09:05:20.501Z,50.90
2023-03-26T09:08:54.402Z,56.40
2023-03-26T09:12:25.465Z,64.90
2023-03-26T09:15:49.690Z,54.83
2023-03-26T09:19:15.245Z,57.47
2023-03-26T09:22:38.707Z,63.25
2023-03-26T09:25:57.395Z,69.90
2023-03-26T09:29:26.205Z,73.35
2023-03-26T09:32:55.286Z,54.00
2023-03-26T09:36:22.365Z,53.88
2023-03-26T09:39:48.525Z,62.38
2023-03-26T09:42:54.192Z,60.80
2023-03-26T09:46:14.149Z,56.63
2023-03-26T09:49:39.718Z,56.78
2023-03-26T09:52:57.788Z,54.63
2023-03-26T09:56:17.054Z,59.83
2023-03-26T09:59:37.569Z,56.25
2023-03-26T10:03:06.460Z,59.58
2023-03-26T10:06:21.016Z,54.50
2023-03-26T10:09:42.670Z,44.30
2023-03-26T10:12:46.785Z,56.28
2023-03-26T10:16:13.325Z,53.75
2023-03-26T10:19:27.200Z,52.15
2023-03-26T10:22:48.869Z,64.35
2023-03-26T10:26:09.308Z,61.60
2023-03-26T10:29:26.811Z,85.97
2023-03-26T10:32:35.590Z,72.03
2023-03-26T10:35:56.940Z,63.67
2023-03-26T10:39:10.294Z,59.50
2023-03-26T10:42:32.023Z,71.38
2023-03-26T10:45:50.814Z,68.47
2023-03-26T10:49:08.218Z,79.63
2023-03-26T10:52:12.869Z,62.10
2023-03-26T10:55:20.796Z,66.55
2023-03-26T10:58:26.178Z,68.47
2023-03-26T11:01:47.894Z,55.65
2023-03-26T11:05:15.051Z,67.25
2023-03-26T11:08:37.432Z,61.25
2023-03-26T11:11:54.377Z,60.42
2023-03-26T11:15:13.993Z,59.28
2023-03-26T11:18:19.624Z,54.60
2023-03-26T11:21:36.956Z,47.38
2023-03-26T11:24:55.506Z,64.63
2023-03-26T11:28:27.282Z,54.80
2023-03-26T11:34:40.863Z,57.47
2023-03-26T11:37:52.799Z,68.13
2023-03-26T11:40:54.866Z,78.20
2023-03-26T11:43:57.847Z,59.65
2023-03-26T11:47:04.555Z,92.05
2023-03-26T11:50:05.455Z,109.88
2023-03-26T11:53:13.748Z,79.45
2023-03-26T11:56:32.791Z,63.33
2023-03-26T11:59:53.127Z,55.40
2023-03-26T12:02:59.380Z,47.00
2023-03-26T12:06:00.315Z,50.30
2023-03-26T12:08:58.375Z,65.78
2023-03-26T12:12:04.544Z,67.25
2023-03-26T12:15:02.584Z,59.83
2023-03-26T12:18:24.591Z,54.58
2023-03-26T12:21:22.907Z,59.50
2023-03-26T12:24:36.986Z,56.85
2023-03-26T12:27:34.953Z,64.13
2023-03-26T12:30:36.000Z,61.80
2023-03-26T12:33:35.806Z,59.33
2023-03-26T12:36:36.346Z,65.35
2023-03-26T12:40:09.551Z,52.80
2023-03-26T12:44:55.269Z,38.13
2023-03-26T12:47:55.233Z,38.05
2023-03-26T12:49:55.842Z,41.28
2023-03-26T12:53:09.627Z,41.85
2023-03-26T12:56:20.354Z,35.40
2023-03-26T12:59:42.292Z,37.20
2023-03-26T13:03:09.953Z,38.83
2023-03-26T13:06:30.350Z,36.33
2023-03-26T13:09:49.964Z,36.03
2023-03-26T13:13:11.660Z,38.80
2023-03-26T13:16:32.316Z,39.67
2023-03-26T13:19:49.591Z,39.20
2023-03-26T13:23:02.907Z,41.75
2023-03-26T13:26:31.589Z,45.25
2023-03-26T13:29:50.409Z,40.72
2023-03-26T13:33:11.433Z,45.13
2023-03-26T13:36:23.248Z,48.33
2023-03-26T13:39:50.588Z,46.33
2023-03-26T13:43:12.347Z,45.42
2023-03-26T13:46:26.766Z,52.40
2023-03-26T13:49:37.837Z,59.90
2023-03-26T13:52:54.113Z,56.97
2023-03-26T13:55:57.684Z,60.28
2023-03-26T13:59:04.416Z,57.58
2023-03-26T14:02:11.809Z,62.08
2023-03-26T14:05:17.917Z,60.08
2023-03-26T14:08:39.997Z,59.47
2023-03-26T14:11:59.350Z,64.88
2023-03-26T14:15:05.071Z,56.80
2023-03-26T14:18:23.440Z,53.88
2023-03-26T14:21:38.705Z,53.28
2023-03-26T14:25:11.264Z,56.60
2023-03-26T14:28:38.798Z,54.00
2023-03-26T14:31:48.098Z,47.55
2023-03-26T14:35:00.052Z,50.42
2023-03-26T14:38:36.923Z,44.28
2023-03-26T14:41:48.560Z,43.45
2023-03-26T14:45:11.888Z,45.83
2023-03-26T14:48:43.386Z,40.55
2023-03-26T14:52:06.518Z,41.80
2023-03-26T14:55:14.210Z,42.63
2023-03-26T14:58:40.151Z,40.08
2023-03-26T15:02:09.399Z,42.10
2023-03-26T15:05:37.048Z,42.35
2023-03-26T15:09:09.580Z,48.05
2023-03-26T15:12:21.867Z,38.92
2023-03-26T15:15:43.942Z,42.33
2023-03-26T15:19:26.973Z,41.15
2023-03-26T15:22:52.104Z,42.53
2023-03-26T15:26:21.244Z,42.17
2023-03-26T15:29:46.357Z,43.90
2023-03-26T15:33:06.472Z,45.00
2023-03-26T15:36:35.165Z,42.58
2023-03-26T15:39:59.652Z,42.55
2023-03-26T15:43:11.429Z,39.97
2023-03-26T15:46:41.865Z,36.95
2023-03-26T15:49:49.988Z,42.35
2023-03-26T15:53:19.182Z,37.20
2023-03-26T15:56:36.224Z,39.97
2023-03-26T15:59:55.015Z,33.50
2023-03-26T16:03:26.042Z,36.47
2023-03-26T16:06:47.771Z,45.70
2023-03-26T16:10:07.585Z,37.20
2023-03-26T16:13:24.813Z,35.05
2023-03-26T16:16:25.469Z,39.13
2023-03-26T16:19:37.074Z,63.17
2023-03-26T16:22:55.430Z,56.47
2023-03-26T16:26:11.163Z,46.97
2023-03-26T16:29:22.748Z,47.47
2023-03-26T16:32:37.051Z,52.22
2023-03-26T16:36:06.104Z,43.05
2023-03-26T16:39:23.571Z,44.53
2023-03-26T16:42:42.170Z,49.28
2023-03-26T16:46:01.172Z,50.60
2023-03-26T16:49:12.815Z,52.90
2023-03-26T16:52:44.540Z,44.10
2023-03-26T16:55:57.185Z,45.03
2023-03-26T16:59:01.089Z,40.70
2023-03-26T17:02:21.861Z,39.33
2023-03-26T17:05:30.837Z,32.65
2023-03-26T17:08:49.099Z,33.03
2023-03-26T17:11:58.424Z,30.55
2023-03-26T17:15:23.029Z,32.13
2023-03-26T17:18:35.270Z,32.03
2023-03-26T17:22:00.510Z,29.95
2023-03-26T17:25:12.325Z,29.88
2023-03-26T17:28:28.017Z,30.43
2023-03-26T17:31:42.256Z,25.50
2023-03-26T17:34:57.132Z,27.88
2023-03-26T17:37:55.910Z,25.85
2023-03-26T17:40:58.239Z,25.70
2023-03-26T17:43:58.128Z,22.75
2023-03-26T17:46:58.446Z,28.23
2023-03-26T17:50:04.937Z,20.83
2023-03-26T17:53:17.363Z,20.92
2023-03-26T17:56:26.346Z,20.85
2023-03-26T17:59:27.838Z,22.67
2023-03-26T18:02:37.141Z,23.27
2023-03-26T18:05:39.991Z,19.27
2023-03-26T18:09:10.999Z,23.13
2023-03-26T18:12:39.871Z,26.50
2023-03-26T18:16:02.702Z,21.58
2023-03-26T18:19:05.635Z,23.30
2023-03-26T18:22:07.979Z,19.88
2023-03-26T18:25:06.205Z,22.93
2023-03-26T18:28:05.825Z,20.85
2023-03-26T18:31:23.930Z,24.23
2023-03-26T18:34:22.955Z,23.73
2023-03-26T18:37:26.765Z,33.22
2023-03-26T18:40:27.149Z,24.92
2023-03-26T18:43:34.521Z,24.58
2023-03-26T18:46:34.827Z,30.58
2023-03-26T18:49:32.722Z,32.45
2023-03-26T18:52:32.972Z,27.77
2023-03-26T18:55:34.079Z,26.20
2023-03-26T18:58:35.382Z,29.88
2023-03-26T19:01:37.063Z,27.58
2023-03-26T19:04:38.836Z,31.20
2023-03-26T19:07:39.701Z,31.25
2023-03-26T19:10:38.281Z,32.60
2023-03-26T19:13:39.040Z,27.08
2023-03-26T19:16:44.012Z,28.00
2023-03-26T19:19:43.076Z,25.27
2023-03-26T19:22:42.964Z,31.92
2023-03-26T19:25:48.467Z,27.50
2023-03-26T19:28:52.114Z,29.52
2023-03-26T19:31:53.114Z,27.15
2023-03-26T19:34:54.022Z,29.63
2023-03-26T19:37:54.761Z,30.27
2023-03-26T19:40:57.450Z,30.23
2023-03-26T19:43:59.412Z,25.35
2023-03-26T19:47:09.774Z,25.42
2023-03-26T19:50:26.488Z,26.38
2023-03-26T19:53:33.136Z,32.13
2023-03-26T19:56:31.069Z,29.48
2023-03-26T19:59:29.454Z,28.40
2023-03-26T20:02:28.047Z,30.70
2023-03-26T20:05:29.444Z,27.30
2023-03-26T20:08:27.408Z,32.47
2023-03-26T20:11:33.933Z,23.35
2023-03-26T20:14:33.047Z,30.88
2023-03-26T20:17:31.455Z,28.10
2023-03-26T20:20:29.766Z,28.95
2023-03-26T20:23:29.476Z,33.50
2023-03-26T20:26:27.389Z,30.73
2023-03-26T20:29:25.332Z,24.67
2023-03-26T20:32:26.419Z,24.80
2023-03-26T20:35:35.762Z,32.97
2023-03-26T20:38:39.500Z,25.58
2023-03-26T20:41:47.042Z,27.35
2023-03-26T20:44:44.851Z,29.50
2023-03-26T20:47:42.935Z,27.42
2023-03-26T20:53:45.415Z,25.30
2023-03-26T20:56:43.317Z,25.13
2023-03-26T20:59:41.284Z,29.73
2023-03-26T21:02:41.275Z,28.80
2023-03-26T21:05:41.819Z,24.90
2023-03-26T21:08:41.058Z,26.42
2023-03-26T21:11:50.616Z,23.77
2023-03-26T21:14:48.714Z,25.38
2023-03-26T21:17:47.240Z,23.67
2023-03-26T21:20:50.294Z,22.08
2023-03-26T21:23:59.858Z,22.50
2023-03-26T21:27:11.324Z,26.50
2023-03-26T21:30:15.099Z,29.17
2023-03-26T21:33:14.363Z,28.27
2023-03-26T21:36:13.944Z,32.03
2023-03-26T21:39:12.400Z,29.02
2023-03-26T21:42:12.826Z,33.22
2023-03-26T21:45:11.465Z,29.00
2023-03-26T21:48:10.133Z,25.92
2023-03-26T21:51:08.505Z,30.85
2023-03-26T21:54:23.400Z,28.73
2023-03-26T21:57:52.327Z,28.38
2023-03-26T22:01:13.415Z,33.20
2023-03-26T22:04:35.758Z,30.58
2023-03-26T22:07:54.971Z,32.22
2023-03-26T22:10:52.792Z,37.55
2023-03-26T22:13:50.846Z,36.63
2023-03-26T22:16:48.855Z,29.45
2023-03-26T22:19:46.911Z,31.27
2023-03-26T22:22:49.179Z,30.90
2023-03-26T22:25:47.554Z,32.85
2023-03-26T22:28:45.395Z,30.40
2023-03-26T22:31:43.621Z,28.98
2023-03-26T22:34:41.976Z,26.92
2023-03-26T22:37:39.933Z,30.83
2023-03-26T22:40:37.984Z,29.25
2023-03-26T22:43:36.035Z,25.52
2023-03-26T22:46:33.863Z,29.92
2023-03-26T22:49:32.119Z,28.23
2023-03-26T22:52:30.935Z,26.15
2023-03-26T22:55:29.962Z,25.65
2023-03-26T22:58:28.866Z,25.83
2023-03-26T23:01:26.824Z,27.55
2023-03-26T23:04:30.331Z,27.92
2023-03-26T23:07:29.704Z,24.80
2023-03-26T23:10:30.542Z,24.90
2023-03-26T23:13:28.654Z,23.85
2023-03-26T23:16:27.076Z,23.33
2023-03-26T23:19:25.197Z,24.02
2023-03-26T23:22:23.671Z,28.98
2023-03-26T23:25:21.902Z,20.45
2023-03-26T23:28:19.876Z,26.05
2023-03-26T23:31:18.344Z,23.85
2023-03-26T23:34:17.382Z,22.75
2023-03-26T23:37:15.319Z,26.42
2023-03-26T23:40:13.783Z,26.30
2023-03-26T23:43:11.743Z,25.17
2023-03-26T23:46:10.944Z,31.20
2023-03-26T23:49:10.837Z,20.77
2023-03-26T23:52:08.636Z,21.98
2023-03-26T23:55:07.580Z,24.13
2023-03-26T23:58:05.404Z,23.30
